sensor_id;sensor_type;location;lat;lon;timestamp;temperature;humidity
18143;DHT22;9197;50.930;3.140;2024-01-10T00:16:12;-2.80;99.90
18143;DHT22;9197;50.930;3.140;2024-01-10T00:18:39;-2.90;99.90
18143;DHT22;9197;50.930;3.140;2024-01-10T00:21:06;-2.90;99.90
18143;DHT22;9197;50.930;3.140;2024-01-10T00:23:33;-2.90;99.90
18143;DHT22;9197;50.930;3.140;2024-01-10T00:26:00;-2.90;99.90
18143;DHT22;9197;50.930;3.140;2024-01-10T00:28:29;-2.90;99.90
18143;DHT22;9197;50.930;3.140;2024-01-10T00:30:55;-2.90;99.90
18143;DHT22;9197;50.930;3.140;2024-01-10T00:33:22;-2.60;99.90
18143;DHT22;9197;50.930;3.140;2024-01-10T00:35:49;-3.00;99.90
18143;DHT22;9197;50.930;3.140;2024-01-10T00:38:16;-2.80;99.90
18143;DHT22;9197;50.930;3.140;2024-01-10T00:40:46;-2.90;99.90
18143;DHT22;9197;50.930;3.140;2024-01-10T00:43:13;-2.90;99.90
18143;DHT22;9197;50.930;3.140;2024-01-10T00:45:41;-3.10;99.90
18143;DHT22;9197;50.930;3.140;2024-01-10T00:48:10;-3.10;99.90
18143;DHT22;9197;50.930;3.140;2024-01-10T00:50:37;-2.70;99.90
18143;DHT22;9197;50.930;3.140;2024-01-10T00:53:04;-3.20;99.90
18143;DHT22;9197;50.930;3.140;2024-01-10T00:55:31;-3.10;99.90
18143;DHT22;9197;50.930;3.140;2024-01-10T00:57:58;-3.20;99.90
18143;DHT22;9197;50.930;3.140;2024-01-10T01:00:24;-3.00;99.90
18143;DHT22;9197;50.930;3.140;2024-01-10T01:02:53;-3.20;99.90
18143;DHT22;9197;50.930;3.140;2024-01-10T01:05:20;-3.30;99.90
18143;DHT22;9197;50.930;3.140;2024-01-10T01:07:47;-3.30;99.90
18143;DHT22;9197;50.930;3.140;2024-01-10T01:10:14;-3.30;99.90
18143;DHT22;9197;50.930;3.140;2024-01-10T01:12:41;-3.30;99.90
18143;DHT22;9197;50.930;3.140;2024-01-10T01:15:08;-3.30;99.90
18143;DHT22;9197;50.930;3.140;2024-01-10T01:17:35;-3.30;99.90
18143;DHT22;9197;50.930;3.140;2024-01-10T01:20:04;-3.20;99.90
18143;DHT22;9197;50.930;3.140;2024-01-10T01:22:31;-3.30;99.90
18143;DHT22;9197;50.930;3.140;2024-01-10T01:24:58;-3.30;99.90
18143;DHT22;9197;50.930;3.140;2024-01-10T01:27:25;-3.40;99.90
18143;DHT22;9197;50.930;3.140;2024-01-10T01:29:52;-2.90;99.90
18143;DHT22;9197;50.930;3.140;2024-01-10T01:32:18;-3.40;99.90
18143;DHT22;9197;50.930;3.140;2024-01-10T01:34:45;-3.10;99.90
18143;DHT22;9197;50.930;3.140;2024-01-10T01:37:14;-3.30;99.90
18143;DHT22;9197;50.930;3.140;2024-01-10T01:39:41;-3.20;99.90
18143;DHT22;9197;50.930;3.140;2024-01-10T01:42:07;-3.20;99.90
18143;DHT22;9197;50.930;3.140;2024-01-10T01:44:34;-3.40;99.90
18143;DHT22;9197;50.930;3.140;2024-01-10T01:47:01;-3.00;99.90
18143;DHT22;9197;50.930;3.140;2024-01-10T01:49:29;-3.50;99.90
18143;DHT22;9197;50.930;3.140;2024-01-10T01:51:56;-3.50;99.90
18143;DHT22;9197;50.930;3.140;2024-01-10T01:54:25;-3.50;99.90
18143;DHT22;9197;50.930;3.140;2024-01-10T01:56:52;-3.40;99.90
18143;DHT22;9197;50.930;3.140;2024-01-10T01:59:19;-3.50;99.90
18143;DHT22;9197;50.930;3.140;2024-01-10T02:01:46;-3.40;99.90
18143;DHT22;9197;50.930;3.140;2024-01-10T02:04:13;-3.50;99.90
18143;DHT22;9197;50.930;3.140;2024-01-10T02:06:40;-3.50;99.90
18143;DHT22;9197;50.930;3.140;2024-01-10T02:09:07;-3.60;99.90
18143;DHT22;9197;50.930;3.140;2024-01-10T02:11:36;-3.70;99.90
18143;DHT22;9197;50.930;3.140;2024-01-10T02:14:03;-3.50;99.90
18143;DHT22;9197;50.930;3.140;2024-01-10T02:16:31;-3.50;99.90
18143;DHT22;9197;50.930;3.140;2024-01-10T02:18:58;-3.70;99.90
18143;DHT22;9197;50.930;3.140;2024-01-10T02:21:25;-3.40;99.90
18143;DHT22;9197;50.930;3.140;2024-01-10T02:23:52;-3.70;99.90
18143;DHT22;9197;50.930;3.140;2024-01-10T02:26:21;-3.60;99.90
18143;DHT22;9197;50.930;3.140;2024-01-10T02:28:48;-3.40;99.90
18143;DHT22;9197;50.930;3.140;2024-01-10T02:31:15;-3.70;99.90
18143;DHT22;9197;50.930;3.140;2024-01-10T02:33:42;-3.60;99.90
18143;DHT22;9197;50.930;3.140;2024-01-10T02:36:08;-3.40;99.90
18143;DHT22;9197;50.930;3.140;2024-01-10T02:38:35;-3.40;99.90
18143;DHT22;9197;50.930;3.140;2024-01-10T02:41:02;-3.60;99.90
18143;DHT22;9197;50.930;3.140;2024-01-10T02:43:30;-3.70;99.90
18143;DHT22;9197;50.930;3.140;2024-01-10T02:45:57;-3.70;99.90
18143;DHT22;9197;50.930;3.140;2024-01-10T02:48:25;-3.70;99.90
18143;DHT22;9197;50.930;3.140;2024-01-10T02:50:52;-3.70;99.90
18143;DHT22;9197;50.930;3.140;2024-01-10T02:53:20;-3.70;99.90
18143;DHT22;9197;50.930;3.140;2024-01-10T02:55:47;-3.50;99.90
18143;DHT22;9197;50.930;3.140;2024-01-10T02:58:15;-3.80;99.90
18143;DHT22;9197;50.930;3.140;2024-01-10T03:00:43;-3.80;99.90
18143;DHT22;9197;50.930;3.140;2024-01-10T03:03:10;-3.80;99.90
18143;DHT22;9197;50.930;3.140;2024-01-10T03:05:37;-3.60;99.90
18143;DHT22;9197;50.930;3.140;2024-01-10T03:08:05;-3.80;99.90
18143;DHT22;9197;50.930;3.140;2024-01-10T03:10:32;-3.80;99.90
18143;DHT22;9197;50.930;3.140;2024-01-10T03:12:59;-3.80;99.90
18143;DHT22;9197;50.930;3.140;2024-01-10T03:15:26;-3.80;99.90
18143;DHT22;9197;50.930;3.140;2024-01-10T03:17:54;-3.80;99.90
18143;DHT22;9197;50.930;3.140;2024-01-10T03:20:21;-3.80;99.90
18143;DHT22;9197;50.930;3.140;2024-01-10T03:22:48;-3.80;99.90
18143;DHT22;9197;50.930;3.140;2024-01-10T03:25:15;-3.80;99.90
18143;DHT22;9197;50.930;3.140;2024-01-10T03:27:42;-3.80;99.90
18143;DHT22;9197;50.930;3.140;2024-01-10T03:30:09;-3.90;99.90
18143;DHT22;9197;50.930;3.140;2024-01-10T03:32:36;-3.80;99.90
18143;DHT22;9197;50.930;3.140;2024-01-10T03:35:07;-3.90;99.90
18143;DHT22;9197;50.930;3.140;2024-01-10T03:37:34;-3.90;99.90
18143;DHT22;9197;50.930;3.140;2024-01-10T03:40:01;-4.00;99.90
18143;DHT22;9197;50.930;3.140;2024-01-10T03:42:28;-3.90;99.90
18143;DHT22;9197;50.930;3.140;2024-01-10T03:44:55;-3.70;99.90
18143;DHT22;9197;50.930;3.140;2024-01-10T03:47:22;-4.10;99.90
18143;DHT22;9197;50.930;3.140;2024-01-10T03:49:49;-4.10;99.90
18143;DHT22;9197;50.930;3.140;2024-01-10T03:52:17;-4.10;99.90
18143;DHT22;9197;50.930;3.140;2024-01-10T03:54:44;-4.20;99.90
18143;DHT22;9197;50.930;3.140;2024-01-10T03:57:11;-4.20;99.90
18143;DHT22;9197;50.930;3.140;2024-01-10T03:59:38;-4.20;99.90
18143;DHT22;9197;50.930;3.140;2024-01-10T04:02:05;-4.30;99.90
18143;DHT22;9197;50.930;3.140;2024-01-10T04:04:32;-4.30;99.90
18143;DHT22;9197;50.930;3.140;2024-01-10T04:06:59;-4.30;99.90
18143;DHT22;9197;50.930;3.140;2024-01-10T04:09:27;-4.30;99.90
18143;DHT22;9197;50.930;3.140;2024-01-10T04:11:54;-4.30;99.90
18143;DHT22;9197;50.930;3.140;2024-01-10T04:14:21;-4.40;99.90
18143;DHT22;9197;50.930;3.140;2024-01-10T04:16:48;-4.40;99.90
18143;DHT22;9197;50.930;3.140;2024-01-10T04:19:15;-4.10;99.90
18143;DHT22;9197;50.930;3.140;2024-01-10T04:21:42;-4.40;99.90
18143;DHT22;9197;50.930;3.140;2024-01-10T04:24:09;-4.30;99.90
18143;DHT22;9197;50.930;3.140;2024-01-10T04:26:37;-4.30;99.90
18143;DHT22;9197;50.930;3.140;2024-01-10T04:29:04;-4.30;99.90
18143;DHT22;9197;50.930;3.140;2024-01-10T04:31:31;-4.30;99.90
18143;DHT22;9197;50.930;3.140;2024-01-10T04:33:58;-4.30;99.90
18143;DHT22;9197;50.930;3.140;2024-01-10T04:36:24;-4.10;99.90
18143;DHT22;9197;50.930;3.140;2024-01-10T04:38:51;-4.30;99.90
18143;DHT22;9197;50.930;3.140;2024-01-10T04:41:18;-4.30;99.90
18143;DHT22;9197;50.930;3.140;2024-01-10T04:43:47;-4.10;99.90
18143;DHT22;9197;50.930;3.140;2024-01-10T04:46:14;-4.10;99.90
18143;DHT22;9197;50.930;3.140;2024-01-10T04:48:40;-4.30;99.90
18143;DHT22;9197;50.930;3.140;2024-01-10T04:51:07;-4.30;99.90
18143;DHT22;9197;50.930;3.140;2024-01-10T04:53:34;-4.30;99.90
18143;DHT22;9197;50.930;3.140;2024-01-10T04:56:01;-4.30;99.90
18143;DHT22;9197;50.930;3.140;2024-01-10T04:58:28;-4.30;99.90
18143;DHT22;9197;50.930;3.140;2024-01-10T05:00:57;-4.30;99.90
18143;DHT22;9197;50.930;3.140;2024-01-10T05:03:24;-4.20;99.90
18143;DHT22;9197;50.930;3.140;2024-01-10T05:05:50;-4.40;99.90
18143;DHT22;9197;50.930;3.140;2024-01-10T05:08:17;-4.30;99.90
18143;DHT22;9197;50.930;3.140;2024-01-10T05:10:45;-4.30;99.90
18143;DHT22;9197;50.930;3.140;2024-01-10T05:13:12;-4.20;99.90
18143;DHT22;9197;50.930;3.140;2024-01-10T05:15:39;-4.30;99.90
18143;DHT22;9197;50.930;3.140;2024-01-10T05:18:08;-4.40;99.90
18143;DHT22;9197;50.930;3.140;2024-01-10T05:20:36;-4.20;99.90
18143;DHT22;9197;50.930;3.140;2024-01-10T05:23:03;-4.20;99.90
18143;DHT22;9197;50.930;3.140;2024-01-10T05:25:30;-4.40;99.90
18143;DHT22;9197;50.930;3.140;2024-01-10T05:27:57;-4.30;99.90
18143;DHT22;9197;50.930;3.140;2024-01-10T05:30:25;-4.40;99.90
18143;DHT22;9197;50.930;3.140;2024-01-10T05:32:52;-4.30;99.90
18143;DHT22;9197;50.930;3.140;2024-01-10T05:35:20;-4.40;99.90
18143;DHT22;9197;50.930;3.140;2024-01-10T05:37:47;-4.50;99.90
18143;DHT22;9197;50.930;3.140;2024-01-10T05:40:14;-4.40;99.90
18143;DHT22;9197;50.930;3.140;2024-01-10T05:42:41;-4.40;99.90
18143;DHT22;9197;50.930;3.140;2024-01-10T05:45:08;-4.30;99.90
18143;DHT22;9197;50.930;3.140;2024-01-10T05:47:35;-4.30;99.90
18143;DHT22;9197;50.930;3.140;2024-01-10T05:50:03;-4.30;99.90
18143;DHT22;9197;50.930;3.140;2024-01-10T05:52:33;-4.30;99.90
18143;DHT22;9197;50.930;3.140;2024-01-10T05:55:00;-4.30;99.90
18143;DHT22;9197;50.930;3.140;2024-01-10T05:57:27;-4.20;99.90
18143;DHT22;9197;50.930;3.140;2024-01-10T05:59:55;-4.30;99.90
18143;DHT22;9197;50.930;3.140;2024-01-10T06:02:22;-4.30;99.90
18143;DHT22;9197;50.930;3.140;2024-01-10T06:04:50;-4.30;99.90
18143;DHT22;9197;50.930;3.140;2024-01-10T06:07:16;-4.30;99.90
18143;DHT22;9197;50.930;3.140;2024-01-10T06:09:45;-4.30;99.90
18143;DHT22;9197;50.930;3.140;2024-01-10T06:12:12;-4.40;99.90
18143;DHT22;9197;50.930;3.140;2024-01-10T06:14:39;-4.40;99.90
18143;DHT22;9197;50.930;3.140;2024-01-10T06:17:06;-4.40;99.90
18143;DHT22;9197;50.930;3.140;2024-01-10T06:19:33;-4.20;99.90
18143;DHT22;9197;50.930;3.140;2024-01-10T06:22:00;-4.40;99.90
18143;DHT22;9197;50.930;3.140;2024-01-10T06:24:27;-4.40;99.90
18143;DHT22;9197;50.930;3.140;2024-01-10T06:26:55;-4.40;99.90
18143;DHT22;9197;50.930;3.140;2024-01-10T06:29:22;-4.10;99.90
18143;DHT22;9197;50.930;3.140;2024-01-10T06:31:49;-4.40;99.90
18143;DHT22;9197;50.930;3.140;2024-01-10T06:34:16;-4.50;99.90
18143;DHT22;9197;50.930;3.140;2024-01-10T06:36:43;-4.40;99.90
18143;DHT22;9197;50.930;3.140;2024-01-10T06:39:10;-4.50;99.90
18143;DHT22;9197;50.930;3.140;2024-01-10T06:41:38;-4.50;99.90
18143;DHT22;9197;50.930;3.140;2024-01-10T06:44:07;-4.50;99.90
18143;DHT22;9197;50.930;3.140;2024-01-10T06:46:34;-4.60;99.90
18143;DHT22;9197;50.930;3.140;2024-01-10T06:49:01;-4.60;99.90
18143;DHT22;9197;50.930;3.140;2024-01-10T06:51:28;-4.60;99.90
